createdAt,value
2023-04-20T00:02:25.125Z,28.80
2023-04-20T00:04:55.236Z,28.80
2023-04-20T00:07:26.494Z,28.80
2023-04-20T00:09:56.070Z,28.90
2023-04-20T00:12:25.639Z,28.90
2023-04-20T00:14:55.514Z,29.00
2023-04-20T00:17:25.187Z,28.90
2023-04-20T00:19:55.197Z,29.00
2023-04-20T00:22:24.790Z,29.00
2023-04-20T00:24:54.501Z,29.00
2023-04-20T00:27:24.253Z,29.00
2023-04-20T00:29:53.850Z,29.00
2023-04-20T00:32:23.475Z,29.00
2023-04-20T00:34:53.125Z,29.00
2023-04-20T00:37:22.687Z,29.00
2023-04-20T00:39:52.447Z,29.00
2023-04-20T00:42:22.031Z,29.00
2023-04-20T00:44:52.303Z,29.00
2023-04-20T00:47:22.102Z,29.00
2023-04-20T00:49:52.396Z,29.10
2023-04-20T00:52:23.012Z,29.10
2023-04-20T00:54:52.760Z,29.20
2023-04-20T00:57:26.156Z,29.20
2023-04-20T00:59:55.818Z,29.30
2023-04-20T01:02:25.552Z,29.30
2023-04-20T01:04:55.991Z,29.40
2023-04-20T01:07:25.548Z,29.50
2023-04-20T01:09:55.113Z,29.50
2023-04-20T01:12:25.066Z,29.60
2023-04-20T01:14:54.779Z,29.60
2023-04-20T01:17:25.853Z,29.70
2023-04-20T01:19:55.611Z,29.80
2023-04-20T01:22:25.550Z,29.80
2023-04-20T01:24:55.833Z,30.00
2023-04-20T01:27:25.442Z,30.00
2023-04-20T01:29:55.168Z,30.10
2023-04-20T01:32:24.853Z,30.20
2023-04-20T01:34:54.816Z,30.30
2023-04-20T01:37:24.468Z,30.40
2023-04-20T01:39:54.234Z,30.50
2023-04-20T01:42:24.209Z,30.60
2023-04-20T01:44:53.825Z,30.60
2023-04-20T01:47:23.610Z,30.70
2023-04-20T01:49:53.177Z,30.70
2023-04-20T01:52:22.866Z,30.80
2023-04-20T01:54:52.518Z,30.80
2023-04-20T01:57:22.126Z,30.90
2023-04-20T01:59:52.008Z,30.90
2023-04-20T02:02:21.673Z,30.90
2023-04-20T02:04:51.400Z,31.00
2023-04-20T02:07:21.027Z,31.00
2023-04-20T02:09:50.551Z,31.10
2023-04-20T02:12:20.168Z,31.20
2023-04-20T02:14:49.806Z,31.20
2023-04-20T02:17:19.853Z,31.20
2023-04-20T02:19:49.470Z,31.30
2023-04-20T02:22:19.337Z,31.30
2023-04-20T02:24:49.109Z,31.40
2023-04-20T02:27:18.741Z,31.50
2023-04-20T02:29:48.458Z,31.50
2023-04-20T02:32:18.399Z,31.60
2023-04-20T02:34:48.233Z,31.60
2023-04-20T02:37:17.835Z,31.70
2023-04-20T02:39:47.734Z,31.70
2023-04-20T02:42:17.345Z,31.70
2023-04-20T02:44:46.919Z,31.80
2023-04-20T02:47:16.743Z,31.90
2023-04-20T02:49:46.596Z,31.90
2023-04-20T02:52:16.333Z,32.00
2023-04-20T02:54:45.971Z,32.00
2023-04-20T02:57:15.505Z,32.10
2023-04-20T02:59:45.136Z,32.10
2023-04-20T03:02:14.743Z,32.10
2023-04-20T03:04:44.569Z,32.20
2023-04-20T03:07:16.011Z,32.20
2023-04-20T03:09:46.322Z,32.30
2023-04-20T03:12:16.080Z,32.40
2023-04-20T03:14:45.909Z,32.40
2023-04-20T03:17:15.601Z,32.50
2023-04-20T03:19:45.287Z,32.50
2023-04-20T03:22:14.944Z,32.60
2023-04-20T03:24:44.850Z,32.60
2023-04-20T03:27:14.439Z,32.70
2023-04-20T03:29:43.967Z,32.80
2023-04-20T03:32:13.661Z,32.80
2023-04-20T03:34:43.229Z,32.90
2023-04-20T03:37:12.877Z,32.90
2023-04-20T03:39:42.476Z,33.00
2023-04-20T03:42:12.175Z,33.00
2023-04-20T03:44:41.815Z,33.10
2023-04-20T03:47:12.535Z,33.20
2023-04-20T03:49:42.206Z,33.20
2023-04-20T03:52:12.600Z,33.20
2023-04-20T03:54:42.311Z,33.30
2023-04-20T03:57:11.901Z,33.40
2023-04-20T03:59:41.644Z,33.40
2023-04-20T04:02:12.560Z,33.50
2023-04-20T04:04:42.985Z,33.50
2023-04-20T04:07:12.854Z,33.60
2023-04-20T04:09:42.466Z,33.60
2023-04-20T04:12:12.472Z,33.70
2023-04-20T04:14:42.450Z,33.70
2023-04-20T04:17:12.377Z,33.80
2023-04-20T04:19:42.043Z,33.90
2023-04-20T04:22:11.848Z,33.90
2023-04-20T04:24:43.285Z,34.00
2023-04-20T04:27:15.925Z,34.00
2023-04-20T04:29:46.313Z,34.10
2023-04-20T04:32:16.447Z,34.20
2023-04-20T04:34:46.120Z,34.20
2023-04-20T04:37:16.131Z,34.30
2023-04-20T04:39:45.714Z,34.40
2023-04-20T04:42:15.289Z,34.40
2023-04-20T04:44:45.199Z,34.50
2023-04-20T04:47:15.894Z,34.60
2023-04-20T04:49:45.387Z,34.60
2023-04-20T04:52:15.769Z,34.60
2023-04-20T04:54:45.361Z,34.70
2023-04-20T04:57:16.485Z,34.80
2023-04-20T04:59:46.152Z,34.90
2023-04-20T05:02:15.905Z,35.00
2023-04-20T05:04:45.769Z,35.00
2023-04-20T05:07:19.143Z,35.10
2023-04-20T05:09:48.713Z,35.10
2023-04-20T05:12:18.350Z,35.10
2023-04-20T05:14:47.859Z,35.10
2023-04-20T05:17:17.791Z,35.10
2023-04-20T05:19:47.409Z,35.20
2023-04-20T05:22:17.073Z,35.30
2023-04-20T05:24:46.871Z,35.30
2023-04-20T05:27:16.544Z,35.50
2023-04-20T05:29:46.089Z,35.50
2023-04-20T05:32:15.662Z,35.50
2023-04-20T05:34:45.122Z,35.60
2023-04-20T05:37:15.044Z,35.60
2023-04-20T05:39:44.748Z,35.70
2023-04-20T05:42:14.389Z,35.70
2023-04-20T05:44:45.474Z,35.80
2023-04-20T05:47:15.004Z,35.90
2023-04-20T05:49:44.687Z,35.90
2023-04-20T05:52:14.175Z,36.00
2023-04-20T05:54:43.784Z,36.10
2023-04-20T05:57:13.475Z,36.20
2023-04-20T05:59:43.149Z,36.20
2023-04-20T06:02:12.773Z,36.30
2023-04-20T06:04:44.198Z,36.30
2023-04-20T06:07:14.054Z,36.30
2023-04-20T06:09:44.037Z,36.40
2023-04-20T06:12:13.600Z,36.40
2023-04-20T06:14:43.279Z,36.40
2023-04-20T06:17:12.945Z,36.50
2023-04-20T06:19:42.613Z,36.50
2023-04-20T06:22:12.652Z,36.50
2023-04-20T06:24:43.996Z,36.50
2023-04-20T06:27:14.580Z,36.50
2023-04-20T06:29:44.167Z,36.50
2023-04-20T06:32:13.729Z,36.40
2023-04-20T06:34:43.355Z,36.30
2023-04-20T06:37:12.949Z,36.20
2023-04-20T06:39:42.461Z,36.10
2023-04-20T06:42:11.982Z,36.00
2023-04-20T06:44:42.573Z,36.00
2023-04-20T06:47:12.102Z,36.00
2023-04-20T06:49:41.663Z,35.90
2023-04-20T06:52:11.266Z,35.90
2023-04-20T06:54:40.972Z,35.90
2023-04-20T06:57:10.566Z,35.80
2023-04-20T06:59:40.188Z,35.80
2023-04-20T07:02:10.071Z,35.70
2023-04-20T07:04:39.993Z,35.60
2023-04-20T07:07:09.586Z,35.60
2023-04-20T07:09:39.165Z,35.50
2023-04-20T07:12:08.956Z,35.50
2023-04-20T07:14:38.647Z,35.40
2023-04-20T07:17:09.229Z,35.40
2023-04-20T07:19:39.125Z,35.30
2023-04-20T07:22:09.120Z,35.30
2023-04-20T07:24:38.804Z,35.30
2023-04-20T07:27:10.110Z,35.20
2023-04-20T07:29:39.733Z,35.20
2023-04-20T07:32:09.490Z,35.10
2023-04-20T07:34:40.850Z,34.90
2023-04-20T07:37:10.598Z,34.80
2023-04-20T07:39:40.240Z,34.70
2023-04-20T07:42:09.869Z,34.50
2023-04-20T07:44:39.900Z,34.50
2023-04-20T07:47:09.532Z,34.40
2023-04-20T07:49:42.252Z,34.30
2023-04-20T07:52:16.937Z,34.20
2023-04-20T07:54:48.123Z,34.00
2023-04-20T07:57:18.120Z,33.90
2023-04-20T07:59:48.876Z,33.80
2023-04-20T08:02:19.404Z,33.70
2023-04-20T08:04:50.473Z,33.70
2023-04-20T08:07:20.570Z,33.70
2023-04-20T08:09:50.129Z,33.60
2023-04-20T08:12:19.719Z,33.50
2023-04-20T08:14:49.265Z,33.50
2023-04-20T08:17:18.873Z,33.40
2023-04-20T08:19:48.959Z,33.40
2023-04-20T08:22:18.450Z,33.30
2023-04-20T08:24:48.709Z,33.20
2023-04-20T08:27:18.849Z,33.10
2023-04-20T08:29:48.433Z,32.90
2023-04-20T08:32:20.200Z,32.50
2023-04-20T08:34:49.780Z,32.00
2023-04-20T08:37:19.380Z,31.60
2023-04-20T08:39:49.043Z,31.20
2023-04-20T08:42:18.865Z,30.90
2023-04-20T08:44:48.585Z,30.50
2023-04-20T08:47:18.314Z,30.20
2023-04-20T08:49:49.166Z,29.90
2023-04-20T08:52:18.824Z,29.60
2023-04-20T08:54:56.150Z,29.20
2023-04-20T08:57:27.967Z,29.00
2023-04-20T08:59:58.559Z,28.70
2023-04-20T09:02:28.294Z,28.60
2023-04-20T09:05:10.298Z,28.60
2023-04-20T09:07:40.214Z,28.60
2023-04-20T09:10:10.100Z,28.70
2023-04-20T09:12:44.900Z,28.70
2023-04-20T09:15:28.918Z,28.70
2023-04-20T09:17:59.308Z,28.60
2023-04-20T09:20:36.592Z,28.50
2023-04-20T09:23:25.966Z,28.50
2023-04-20T09:25:55.692Z,28.50
2023-04-20T09:28:25.344Z,28.60
2023-04-20T09:30:55.012Z,28.60
2023-04-20T09:33:31.154Z,28.70
2023-04-20T09:36:07.940Z,28.80
2023-04-20T09:38:37.863Z,28.80
2023-04-20T09:41:08.071Z,28.90
2023-04-20T09:43:38.027Z,28.90
2023-04-20T09:46:09.479Z,28.90
2023-04-20T09:48:39.419Z,28.90
2023-04-20T09:51:09.854Z,29.00
2023-04-20T09:53:40.292Z,29.10
2023-04-20T09:56:10.145Z,29.10
2023-04-20T09:58:41.185Z,29.20
2023-04-20T10:01:13.111Z,29.20
2023-04-20T10:03:47.095Z,29.30
2023-04-20T10:06:28.076Z,29.40
2023-04-20T10:08:58.443Z,29.40
2023-04-20T10:11:51.604Z,29.30
2023-04-20T10:14:27.494Z,29.30
2023-04-20T10:17:16.866Z,29.20
2023-04-20T10:19:48.564Z,29.30
2023-04-20T10:22:34.343Z,29.30
2023-04-20T10:25:17.644Z,29.30
2023-04-20T10:28:04.719Z,29.40
2023-04-20T10:30:35.840Z,29.40
2023-04-20T10:33:15.105Z,29.40
2023-04-20T10:35:53.675Z,29.40
2023-04-20T10:38:33.927Z,29.40
2023-04-20T10:41:14.203Z,29.30
2023-04-20T10:43:47.008Z,29.30
2023-04-20T10:46:24.764Z,29.20
2023-04-20T10:48:59.382Z,29.10
2023-04-20T10:51:29.423Z,29.00
2023-04-20T10:54:09.264Z,29.00
2023-04-20T10:56:43.678Z,29.00
2023-04-20T10:59:18.705Z,29.00
2023-04-20T11:01:49.791Z,29.00
2023-04-20T11:04:20.235Z,29.00
2023-04-20T11:06:50.378Z,29.00
2023-04-20T11:09:28.268Z,29.00
2023-04-20T11:12:05.536Z,29.00
2023-04-20T11:14:37.229Z,29.10
2023-04-20T11:17:07.306Z,29.00
2023-04-20T11:19:39.074Z,29.00
2023-04-20T11:22:08.751Z,29.00
2023-04-20T11:24:39.838Z,29.00
2023-04-20T11:27:09.465Z,29.00
2023-04-20T11:29:41.268Z,29.00
2023-04-20T11:32:12.500Z,28.90
2023-04-20T11:34:43.484Z,28.90
2023-04-20T11:37:17.419Z,28.90
2023-04-20T11:39:47.027Z,28.90
2023-04-20T11:42:16.588Z,28.90
2023-04-20T11:44:46.152Z,28.90
2023-04-20T11:47:16.807Z,28.90
2023-04-20T11:49:46.431Z,28.90
2023-04-20T11:52:16.025Z,28.80
2023-04-20T11:54:46.398Z,28.90
2023-04-20T11:57:16.001Z,28.90
2023-04-20T11:59:49.668Z,28.80
2023-04-20T12:02:19.568Z,28.80
2023-04-20T12:04:49.376Z,28.80
2023-04-20T12:07:19.026Z,28.80
2023-04-20T12:09:48.601Z,28.80
2023-04-20T12:12:18.213Z,28.90
2023-04-20T12:14:47.847Z,28.90
2023-04-20T12:17:17.632Z,28.90
2023-04-20T12:19:47.424Z,28.90
2023-04-20T12:22:17.007Z,28.90
2023-04-20T12:24:47.303Z,28.90
2023-04-20T12:27:17.142Z,28.80
2023-04-20T12:29:46.740Z,28.80
2023-04-20T12:32:16.366Z,28.80
2023-04-20T12:34:45.992Z,28.70
2023-04-20T12:37:16.509Z,28.70
2023-04-20T12:39:46.153Z,28.60
2023-04-20T12:42:15.841Z,28.60
2023-04-20T12:44:45.476Z,28.50
2023-04-20T12:47:15.369Z,28.50
2023-04-20T12:49:44.855Z,28.40
2023-04-20T12:52:14.624Z,28.40
2023-04-20T12:54:44.557Z,28.40
2023-04-20T12:57:14.789Z,28.30
2023-04-20T12:59:44.652Z,28.30
2023-04-20T13:02:14.570Z,28.20
2023-04-20T13:04:44.207Z,28.20
2023-04-20T13:07:13.918Z,28.20
2023-04-20T13:09:43.462Z,28.20
2023-04-20T13:12:15.074Z,28.20
2023-04-20T13:14:44.720Z,28.30
2023-04-20T13:17:15.509Z,28.30
2023-04-20T13:19:45.494Z,28.30
2023-04-20T13:22:18.079Z,28.30
2023-04-20T13:24:48.876Z,28.30
2023-04-20T13:27:18.429Z,28.30
2023-04-20T13:29:48.026Z,28.40
2023-04-20T13:32:17.610Z,28.40
2023-04-20T13:34:47.825Z,28.40
2023-04-20T13:37:17.370Z,28.40
2023-04-20T13:39:47.016Z,28.50
2023-04-20T13:42:16.584Z,28.50
2023-04-20T13:44:46.183Z,28.50
2023-04-20T13:47:16.634Z,28.50
2023-04-20T13:49:46.307Z,28.40
2023-04-20T13:52:15.953Z,28.40
2023-04-20T13:54:45.506Z,28.30
2023-04-20T13:57:15.076Z,28.30
2023-04-20T13:59:44.762Z,28.20
2023-04-20T14:02:14.286Z,28.20
2023-04-20T14:04:43.972Z,28.30
2023-04-20T14:07:13.695Z,28.20
2023-04-20T14:09:45.746Z,28.20
2023-04-20T14:12:16.454Z,28.20
2023-04-20T14:14:45.968Z,28.20
2023-04-20T14:17:18.425Z,28.10
2023-04-20T14:19:48.028Z,28.10
2023-04-20T14:22:18.018Z,28.10
2023-04-20T14:24:48.303Z,28.00
2023-04-20T14:27:17.886Z,28.00
2023-04-20T14:29:47.489Z,28.00
2023-04-20T14:32:17.070Z,28.00
2023-04-20T14:34:46.824Z,28.00
2023-04-20T14:37:16.545Z,28.00
2023-04-20T14:39:46.111Z,27.90
2023-04-20T14:42:15.914Z,27.90
2023-04-20T14:44:45.567Z,27.90
2023-04-20T14:47:15.129Z,27.80
2023-04-20T14:49:46.343Z,27.80
2023-04-20T14:52:20.190Z,27.80
2023-04-20T14:54:49.854Z,27.80
2023-04-20T14:57:19.460Z,27.70
2023-04-20T14:59:49.031Z,27.80
2023-04-20T15:02:20.006Z,27.70
2023-04-20T15:04:50.353Z,27.60
2023-04-20T15:07:20.430Z,27.50
2023-04-20T15:09:50.031Z,27.40
2023-04-20T15:12:19.532Z,27.40
2023-04-20T15:14:49.056Z,27.40
2023-04-20T15:17:18.614Z,27.30
2023-04-20T15:19:48.148Z,27.20
2023-04-20T15:22:17.872Z,27.20
2023-04-20T15:24:47.429Z,27.10
2023-04-20T15:27:18.711Z,27.20
2023-04-20T15:29:48.244Z,27.20
2023-04-20T15:32:17.934Z,27.20
2023-04-20T15:34:47.496Z,27.30
2023-04-20T15:37:17.081Z,27.30
2023-04-20T15:39:46.759Z,27.30
2023-04-20T15:42:16.298Z,27.30
2023-04-20T15:44:45.978Z,27.30
2023-04-20T15:47:15.680Z,27.20
2023-04-20T15:49:45.281Z,27.20
2023-04-20T15:52:14.896Z,27.20
2023-04-20T15:54:45.429Z,27.10
2023-04-20T15:57:15.242Z,27.10
2023-04-20T15:59:45.313Z,27.10
2023-04-20T16:02:15.136Z,27.10
2023-04-20T16:04:45.391Z,27.10
2023-04-20T16:07:16.368Z,27.20
2023-04-20T16:09:45.993Z,27.20
2023-04-20T16:12:15.624Z,27.20
2023-04-20T16:14:45.245Z,27.30
2023-04-20T16:17:15.132Z,27.30
2023-04-20T16:19:44.863Z,27.30
2023-04-20T16:22:15.749Z,27.40
2023-04-20T16:24:45.416Z,27.40
2023-04-20T16:27:15.072Z,27.40
2023-04-20T16:29:44.718Z,27.40
2023-04-20T16:32:14.707Z,27.40
2023-04-20T16:34:44.314Z,27.40
2023-04-20T16:37:14.004Z,27.30
2023-04-20T16:39:43.853Z,27.30
2023-04-20T16:42:13.517Z,27.20
2023-04-20T16:44:43.174Z,27.20
2023-04-20T16:47:12.775Z,27.20
2023-04-20T16:49:42.508Z,27.20
2023-04-20T16:52:12.180Z,27.20
2023-04-20T16:54:43.381Z,27.10
2023-04-20T16:57:13.395Z,27.00
2023-04-20T16:59:44.711Z,27.00
2023-04-20T17:02:15.571Z,27.00
2023-04-20T17:04:45.260Z,27.00
2023-04-20T17:07:15.437Z,27.00
2023-04-20T17:09:45.038Z,27.00
2023-04-20T17:12:14.632Z,27.00
2023-04-20T17:14:45.035Z,27.00
2023-04-20T17:17:14.610Z,26.90
2023-04-20T17:19:44.251Z,26.90
2023-04-20T17:22:13.816Z,26.80
2023-04-20T17:24:43.399Z,26.70
2023-04-20T17:27:12.933Z,26.70
2023-04-20T17:29:44.704Z,26.60
2023-04-20T17:32:14.562Z,26.60
2023-04-20T17:34:50.338Z,26.70
2023-04-20T17:37:24.619Z,26.60
2023-04-20T17:39:54.195Z,26.60
2023-04-20T17:42:23.717Z,26.60
2023-04-20T17:44:53.901Z,26.60
2023-04-20T17:47:23.466Z,26.60
2023-04-20T17:49:53.738Z,26.60
2023-04-20T17:52:23.896Z,26.60
2023-04-20T17:54:54.392Z,26.60
2023-04-20T17:57:24.101Z,26.60
2023-04-20T17:59:53.643Z,26.60
2023-04-20T18:02:25.423Z,26.60
2023-04-20T18:04:56.924Z,26.60
2023-04-20T18:07:26.794Z,26.60
2023-04-20T18:09:56.460Z,26.60
2023-04-20T18:12:26.176Z,26.60
2023-04-20T18:14:55.731Z,26.60
2023-04-20T18:17:25.329Z,26.60
2023-04-20T18:19:54.950Z,26.50
2023-04-20T18:22:25.818Z,26.50
2023-04-20T18:24:55.879Z,26.50
2023-04-20T18:27:25.506Z,26.50
2023-04-20T18:29:55.296Z,26.50
2023-04-20T18:32:24.830Z,26.50
2023-04-20T18:34:54.726Z,26.50
2023-04-20T18:37:24.272Z,26.40
2023-04-20T18:39:53.845Z,26.40
2023-04-20T18:42:23.676Z,26.40
2023-04-20T18:44:55.186Z,26.40
2023-04-20T18:47:27.081Z,26.40
2023-04-20T18:49:56.652Z,26.40
2023-04-20T18:52:26.233Z,26.40
2023-04-20T18:54:57.091Z,26.40
2023-04-20T18:57:30.068Z,26.40
2023-04-20T18:59:59.677Z,26.30
2023-04-20T19:02:29.518Z,26.30
2023-04-20T19:04:59.326Z,26.30
2023-04-20T19:07:29.049Z,26.30
2023-04-20T19:09:58.721Z,26.30
2023-04-20T19:12:29.418Z,26.20
2023-04-20T19:14:59.061Z,26.20
2023-04-20T19:17:28.736Z,26.20
2023-04-20T19:19:59.066Z,26.20
2023-04-20T19:22:28.633Z,26.20
2023-04-20T19:24:58.239Z,26.20
2023-04-20T19:27:28.489Z,26.20
2023-04-20T19:29:58.003Z,26.20
2023-04-20T19:32:27.722Z,26.20
2023-04-20T19:34:59.379Z,26.20
2023-04-20T19:37:29.498Z,26.20
2023-04-20T19:39:59.111Z,26.20
2023-04-20T19:42:28.699Z,26.20
2023-04-20T19:44:59.708Z,26.20
2023-04-20T19:47:29.319Z,26.20
2023-04-20T19:49:59.807Z,26.10
2023-04-20T19:52:30.121Z,26.10
2023-04-20T19:54:59.740Z,26.20
2023-04-20T19:57:29.399Z,26.20
2023-04-20T19:59:59.108Z,26.10
2023-04-20T20:02:28.837Z,26.10
2023-04-20T20:04:58.499Z,26.10
2023-04-20T20:07:28.163Z,26.10
2023-04-20T20:09:57.809Z,26.10
2023-04-20T20:12:27.664Z,26.10
2023-04-20T20:14:57.224Z,26.10
2023-04-20T20:17:26.985Z,26.10
2023-04-20T20:19:57.157Z,26.00
2023-04-20T20:22:26.912Z,26.00
2023-04-20T20:24:56.531Z,26.00
2023-04-20T20:27:26.056Z,26.00
2023-04-20T20:29:55.629Z,26.00
2023-04-20T20:32:26.433Z,25.90
2023-04-20T20:34:56.084Z,25.90
2023-04-20T20:37:25.982Z,25.90
2023-04-20T20:39:55.611Z,25.90
2023-04-20T20:42:25.166Z,25.80
2023-04-20T20:44:54.653Z,25.80
2023-04-20T20:47:25.894Z,25.70
2023-04-20T20:49:55.505Z,25.70
2023-04-20T20:52:25.149Z,25.70
2023-04-20T20:54:54.662Z,25.70
2023-04-20T20:57:24.428Z,25.80
2023-04-20T20:59:54.016Z,25.80
2023-04-20T21:02:23.901Z,25.70
2023-04-20T21:04:53.632Z,25.70
2023-04-20T21:07:23.168Z,25.70
2023-04-20T21:09:52.673Z,25.70
2023-04-20T21:12:22.317Z,25.70
2023-04-20T21:14:53.894Z,25.60
2023-04-20T21:17:23.604Z,25.60
2023-04-20T21:19:53.183Z,25.50
2023-04-20T21:22:24.078Z,25.50
2023-04-20T21:24:53.674Z,25.50
2023-04-20T21:27:23.259Z,25.40
2023-04-20T21:29:52.798Z,25.40
2023-04-20T21:32:22.759Z,25.40
2023-04-20T21:34:53.302Z,25.40
2023-04-20T21:37:22.938Z,25.40
2023-04-20T21:39:53.009Z,25.40
2023-04-20T21:42:22.770Z,25.40
2023-04-20T21:44:52.310Z,25.40
2023-04-20T21:47:21.937Z,25.40
2023-04-20T21:49:51.469Z,25.40
2023-04-20T21:52:21.158Z,25.40
2023-04-20T21:54:50.782Z,25.30
2023-04-20T21:57:20.686Z,25.30
2023-04-20T21:59:50.352Z,25.20
2023-04-20T22:02:19.973Z,25.20
2023-04-20T22:04:50.619Z,25.10
2023-04-20T22:07:20.323Z,25.00
2023-04-20T22:09:49.843Z,24.90
2023-04-20T22:12:32.283Z,24.90
2023-04-20T22:15:10.973Z,25.00
2023-04-20T22:17:40.698Z,25.00
2023-04-20T22:20:12.519Z,25.00
2023-04-20T22:22:42.807Z,25.00
2023-04-20T22:25:12.673Z,25.00
2023-04-20T22:27:42.358Z,25.00
2023-04-20T22:30:12.403Z,25.00
2023-04-20T22:32:42.610Z,25.00
2023-04-20T22:35:12.374Z,25.00
2023-04-20T22:37:42.518Z,25.00
2023-04-20T22:40:13.925Z,24.90
2023-04-20T22:42:43.552Z,24.80
2023-04-20T22:45:13.565Z,24.70
2023-04-20T22:47:43.363Z,24.60
2023-04-20T22:50:13.836Z,24.50
2023-04-20T22:52:43.482Z,24.60
2023-04-20T22:55:13.632Z,24.60
2023-04-20T22:57:43.358Z,24.60
2023-04-20T23:00:15.284Z,24.70
2023-04-20T23:02:44.975Z,24.70
2023-04-20T23:05:14.689Z,24.60
2023-04-20T23:07:46.877Z,24.70
2023-04-20T23:10:20.565Z,24.70
2023-04-20T23:12:51.365Z,24.70
2023-04-20T23:15:20.927Z,24.60
2023-04-20T23:17:50.572Z,24.50
2023-04-20T23:20:20.210Z,24.50
2023-04-20T23:22:49.888Z,24.50
2023-04-20T23:25:19.589Z,24.50
2023-04-20T23:27:49.184Z,24.40
2023-04-20T23:30:18.880Z,24.30
2023-04-20T23:32:48.448Z,24.30
2023-04-20T23:35:18.026Z,24.30
2023-04-20T23:37:47.584Z,24.30
2023-04-20T23:40:17.371Z,24.30
2023-04-20T23:42:47.006Z,24.30
2023-04-20T23:45:16.629Z,24.30
2023-04-20T23:47:46.269Z,24.40
2023-04-20T23:50:16.065Z,24.50
2023-04-20T23:52:45.539Z,24.50
2023-04-20T23:55:15.915Z,24.50
2023-04-20T23:57:45.613Z,24.50
